Time;durP1;ratioP1;P1;durP2;ratioP2;P2;SDS_P1;SDS_P2;PMS_P1;PMS_P2;Temp;Humidity;BMP_temperature;BMP_pressure;BME280_temperature;BME280_humidity;BME280_pressure;Samples;Min_cycle;Max_cycle;Signal;HPM_P1;HPM_P2
2021/06/30 00:02:02;;;;;;;22.83;10.87;;;14.90;99.90;;;;;;5094361;28;20286;-79
2021/06/30 00:04:29;;;;;;;16.47;11.27;;;14.90;99.90;;;;;;5091984;28;20240;-81
2021/06/30 00:06:56;;;;;;;18.20;11.07;;;14.90;99.90;;;;;;5094051;28;20391;-78
2021/06/30 00:09:23;;;;;;;18.83;11.63;;;14.90;99.90;;;;;;5094204;28;20195;-80
2021/06/30 00:11:50;;;;;;;17.23;10.67;;;14.90;99.90;;;;;;5094528;28;20226;-79
2021/06/30 00:14:17;;;;;;;18.20;11.00;;;14.80;99.90;;;;;;5093975;28;20284;-80
2021/06/30 00:16:47;;;;;;;18.33;11.67;;;14.70;99.90;;;;;;5094063;28;20571;-78
2021/06/30 00:19:14;;;;;;;22.20;11.07;;;14.70;99.90;;;;;;5093730;28;20305;-78
2021/06/30 00:21:41;;;;;;;26.13;12.87;;;14.70;99.90;;;;;;5093961;28;20223;-77
2021/06/30 00:24:08;;;;;;;17.50;11.70;;;14.60;99.90;;;;;;5091455;28;20277;-78
2021/06/30 00:26:36;;;;;;;16.80;11.53;;;14.70;99.90;;;;;;5094124;28;20280;-79
2021/06/30 00:29:03;;;;;;;18.13;12.00;;;14.70;99.90;;;;;;5093846;28;20218;-78
2021/06/30 00:31:30;;;;;;;20.53;11.90;;;14.70;99.90;;;;;;5093987;28;20195;-79
2021/06/30 00:34:02;;;;;;;18.83;11.87;;;14.70;99.90;;;;;;5094071;28;20286;-78
2021/06/30 00:36:30;;;;;;;20.23;11.93;;;14.70;99.90;;;;;;5094469;28;20251;-78
2021/06/30 00:38:57;;;;;;;22.70;12.63;;;14.70;99.90;;;;;;5094585;28;20219;-78
2021/06/30 00:41:24;;;;;;;22.40;12.30;;;14.60;99.90;;;;;;5095454;28;20614;-78
2021/06/30 00:43:51;;;;;;;24.57;14.17;;;14.60;99.90;;;;;;5095063;28;20237;-80
2021/06/30 00:46:26;;;;;;;22.33;13.93;;;14.70;99.90;;;;;;5095993;28;20281;-79
2021/06/30 00:48:53;;;;;;;22.57;13.33;;;14.70;99.90;;;;;;5093888;28;20280;-80
2021/06/30 00:51:22;;;;;;;22.07;14.00;;;14.70;99.90;;;;;;5095443;28;20229;-78
2021/06/30 00:53:49;;;;;;;27.43;14.17;;;14.80;99.90;;;;;;5095318;28;20289;-81
2021/06/30 00:56:22;;;;;;;23.87;13.37;;;14.70;99.90;;;;;;5093584;28;20229;-78
2021/06/30 00:58:51;;;;;;;23.80;13.77;;;14.70;99.90;;;;;;5093374;28;20187;-80
2021/06/30 01:01:18;;;;;;;27.40;14.13;;;14.70;99.90;;;;;;5093377;28;20206;-79
2021/06/30 01:03:45;;;;;;;26.20;15.60;;;14.80;99.90;;;;;;5093370;28;20195;-79
2021/06/30 01:06:12;;;;;;;26.00;14.80;;;14.80;99.90;;;;;;5090967;28;20725;-79
2021/06/30 01:08:40;;;;;;;32.63;15.33;;;14.80;99.90;;;;;;5094211;28;20249;-79
2021/06/30 01:11:08;;;;;;;26.00;14.30;;;14.80;99.90;;;;;;5093775;28;20377;-78
2021/06/30 01:13:35;;;;;;;26.17;14.63;;;14.80;99.90;;;;;;5093480;28;20613;-80
2021/06/30 01:16:02;;;;;;;25.10;14.37;;;14.80;99.90;;;;;;5093827;28;20213;-80
2021/06/30 01:18:32;;;;;;;27.07;14.20;;;14.80;99.90;;;;;;5093638;28;20230;-81
2021/06/30 01:21:00;;;;;;;26.60;14.13;;;14.70;99.90;;;;;;5093314;28;20263;-80
2021/06/30 01:23:30;;;;;;;28.60;14.77;;;14.70;99.90;;;;;;5093531;28;20260;-80
2021/06/30 01:25:58;;;;;;;29.83;14.47;;;14.70;99.90;;;;;;5093432;28;20667;-80
2021/06/30 01:28:25;;;;;;;26.87;15.70;;;14.70;99.90;;;;;;5093460;28;20394;-80
2021/06/30 01:30:54;;;;;;;28.57;15.20;;;14.80;99.90;;;;;;5093747;28;20252;-79
2021/06/30 01:33:22;;;;;;;32.50;16.27;;;14.80;99.90;;;;;;5093287;28;20646;-81
2021/06/30 01:35:49;;;;;;;32.67;17.07;;;14.80;99.90;;;;;;5093593;28;20297;-82
2021/06/30 01:38:19;;;;;;;35.43;17.23;;;14.70;99.90;;;;;;5093224;28;20630;-79
2021/06/30 01:40:48;;;;;;;35.37;18.23;;;14.80;99.90;;;;;;5092991;28;20265;-78
2021/06/30 01:43:14;;;;;;;39.53;18.00;;;14.90;99.90;;;;;;5093023;28;20289;-82
2021/06/30 01:45:41;;;;;;;32.53;17.10;;;14.90;99.90;;;;;;5092962;28;20290;-80
2021/06/30 01:48:09;;;;;;;37.90;16.83;;;14.90;99.90;;;;;;5093020;28;20557;-79
2021/06/30 01:50:36;;;;;;;34.53;18.33;;;14.80;99.90;;;;;;5092751;28;20285;-81
2021/06/30 01:53:04;;;;;;;32.53;17.03;;;14.70;99.90;;;;;;5092804;28;20328;-78
2021/06/30 01:55:32;;;;;;;32.57;17.40;;;14.80;99.90;;;;;;5092654;28;20289;-79
2021/06/30 01:58:01;;;;;;;39.33;17.37;;;14.80;99.90;;;;;;5092739;28;20230;-79
2021/06/30 02:00:28;;;;;;;39.20;18.00;;;14.80;99.90;;;;;;5092799;28;20329;-79
2021/06/30 02:02:55;;;;;;;40.20;17.57;;;14.80;99.90;;;;;;5092917;28;20290;-79
2021/06/30 02:05:23;;;;;;;40.57;17.13;;;14.80;99.90;;;;;;5092758;28;20297;-77
2021/06/30 02:07:53;;;;;;;35.40;17.17;;;14.80;99.90;;;;;;5093070;28;20290;-79
2021/06/30 02:10:21;;;;;;;38.17;18.33;;;14.80;99.90;;;;;;5092673;28;20649;-78
2021/06/30 02:12:49;;;;;;;40.93;17.77;;;14.80;99.90;;;;;;5092773;28;20198;-79
2021/06/30 02:15:23;;;;;;;46.37;17.90;;;14.90;99.90;;;;;;5092714;28;20289;-77
2021/06/30 02:17:51;;;;;;;39.37;17.47;;;15.00;99.90;;;;;;5092611;28;20202;-79
2021/06/30 02:20:19;;;;;;;40.40;16.77;;;14.90;99.90;;;;;;5092697;28;20254;-78
2021/06/30 02:22:47;;;;;;;35.37;16.37;;;14.90;99.90;;;;;;5092470;28;20201;-78
2021/06/30 02:25:17;;;;;;;38.20;16.87;;;14.90;99.90;;;;;;5092810;28;20540;-77
2021/06/30 02:27:45;;;;;;;36.70;16.87;;;14.90;99.90;;;;;;5092646;28;20242;-77
2021/06/30 02:30:14;;;;;;;40.77;16.20;;;15.00;99.90;;;;;;5092714;28;20290;-80
2021/06/30 02:32:44;;;;;;;39.97;17.53;;;14.90;99.90;;;;;;5092319;28;20282;-80
2021/06/30 02:35:16;;;;;;;39.57;16.97;;;14.90;99.90;;;;;;5092083;28;20195;-79
2021/06/30 02:37:43;;;;;;;34.80;16.17;;;14.90;99.90;;;;;;5092479;28;20281;-80
2021/06/30 02:40:12;;;;;;;38.57;17.10;;;14.90;99.90;;;;;;5092351;28;20230;-78
2021/06/30 02:42:40;;;;;;;39.90;16.60;;;14.90;99.90;;;;;;5092294;28;20294;-79
2021/06/30 02:45:10;;;;;;;31.90;17.07;;;14.80;99.90;;;;;;5092319;28;20241;-79
2021/06/30 02:47:37;;;;;;;41.37;16.40;;;14.80;99.90;;;;;;5092132;28;20297;-77
2021/06/30 02:50:08;;;;;;;36.87;16.80;;;15.00;99.90;;;;;;5092113;28;20289;-78
2021/06/30 02:52:35;;;;;;;41.87;16.80;;;14.90;99.90;;;;;;5092592;28;20234;-80
2021/06/30 02:55:02;;;;;;;38.67;16.67;;;14.90;99.90;;;;;;5092311;28;20319;-79
2021/06/30 02:57:29;;;;;;;36.37;17.27;;;14.70;99.90;;;;;;5093349;28;20728;-80
2021/06/30 02:59:56;;;;;;;34.87;16.83;;;14.60;99.90;;;;;;5095804;28;20665;-80
2021/06/30 03:02:23;;;;;;;35.70;16.53;;;14.60;99.90;;;;;;5095953;28;20309;-79
2021/06/30 03:04:50;;;;;;;35.93;15.50;;;14.60;99.90;;;;;;5095922;28;20252;-78
2021/06/30 03:07:18;;;;;;;34.97;15.77;;;14.60;99.90;;;;;;5096248;28;20203;-79
2021/06/30 03:09:45;;;;;;;29.63;15.13;;;14.60;99.90;;;;;;5095840;28;20226;-78
2021/06/30 03:12:12;;;;;;;26.20;14.00;;;14.60;99.90;;;;;;5095489;28;20651;-80
2021/06/30 03:14:39;;;;;;;24.13;13.00;;;14.50;99.90;;;;;;5095762;28;20199;-78
2021/06/30 03:17:06;;;;;;;22.70;12.60;;;14.40;99.90;;;;;;5095549;28;20228;-80
2021/06/30 03:19:33;;;;;;;24.30;13.07;;;14.30;99.90;;;;;;5096136;28;20277;-78
2021/06/30 03:22:00;;;;;;;27.20;13.70;;;14.30;99.90;;;;;;5095543;28;20286;-78
2021/06/30 03:24:28;;;;;;;24.37;12.87;;;14.30;99.90;;;;;;5095814;28;20306;-81
2021/06/30 03:26:55;;;;;;;29.67;12.63;;;14.40;99.90;;;;;;5095472;28;20642;-78
2021/06/30 03:29:22;;;;;;;28.67;12.93;;;14.30;99.90;;;;;;5095385;28;20290;-82
2021/06/30 03:31:49;;;;;;;29.40;12.13;;;14.40;99.90;;;;;;5095527;28;20207;-79
2021/06/30 03:34:16;;;;;;;20.97;11.10;;;14.30;99.90;;;;;;5095288;28;20554;-82
2021/06/30 03:36:43;;;;;;;21.90;10.80;;;14.30;99.90;;;;;;5095441;28;20198;-81
2021/06/30 03:39:10;;;;;;;23.67;10.70;;;14.20;99.90;;;;;;5095373;28;20279;-81
2021/06/30 03:41:38;;;;;;;23.13;10.70;;;14.20;99.90;;;;;;5095492;28;20309;-80
2021/06/30 03:44:05;;;;;;;16.17;9.83;;;14.30;99.90;;;;;;5095250;28;20624;-79
2021/06/30 03:46:32;;;;;;;21.93;10.00;;;14.40;99.90;;;;;;5095497;28;20198;-81
2021/06/30 03:49:00;;;;;;;17.47;8.53;;;14.40;99.90;;;;;;5095308;28;20233;-83
2021/06/30 03:51:26;;;;;;;12.77;8.57;;;14.20;99.90;;;;;;5095414;28;20234;-82
2021/06/30 03:53:53;;;;;;;14.13;8.17;;;13.90;99.90;;;;;;5095591;28;20623;-79
2021/06/30 03:56:24;;;;;;;10.63;7.23;;;13.80;99.90;;;;;;5095697;28;20226;-80
2021/06/30 03:58:54;;;;;;;15.10;8.30;;;13.80;99.90;;;;;;5095203;28;20230;-78
2021/06/30 04:01:21;;;;;;;16.33;8.90;;;13.90;99.90;;;;;;5095195;28;20219;-81
2021/06/30 04:03:52;;;;;;;19.40;9.53;;;14.00;99.90;;;;;;5095087;28;20195;-79
2021/06/30 04:06:19;;;;;;;14.60;8.87;;;14.00;99.90;;;;;;5094829;28;20256;-79
2021/06/30 04:08:46;;;;;;;15.40;9.00;;;14.00;99.90;;;;;;5094638;28;20199;-78
2021/06/30 04:11:13;;;;;;;15.37;9.33;;;14.00;99.90;;;;;;5094622;28;20201;-78
2021/06/30 04:13:40;;;;;;;19.37;9.00;;;14.10;99.90;;;;;;5095226;28;20209;-79
2021/06/30 04:16:08;;;;;;;15.93;9.13;;;14.20;99.90;;;;;;5094872;28;20332;-80
2021/06/30 04:18:35;;;;;;;13.00;8.77;;;14.40;99.90;;;;;;5094735;28;20242;-83
2021/06/30 04:21:02;;;;;;;13.67;9.00;;;14.50;99.90;;;;;;5094400;28;20322;-79
2021/06/30 04:23:29;;;;;;;18.87;9.33;;;14.60;99.90;;;;;;5094582;28;20238;-80
2021/06/30 04:25:56;;;;;;;18.80;10.17;;;14.60;99.90;;;;;;5094507;28;20254;-80
2021/06/30 04:28:23;;;;;;;20.33;10.73;;;14.70;99.90;;;;;;5094948;28;20222;-79
2021/06/30 04:30:50;;;;;;;17.30;10.27;;;14.80;99.90;;;;;;5094782;28;20222;-82
2021/06/30 04:33:18;;;;;;;14.23;8.80;;;14.60;99.90;;;;;;5094547;28;20293;-81
2021/06/30 04:35:45;;;;;;;9.07;7.37;;;14.40;99.90;;;;;;5094454;28;20289;-80
2021/06/30 04:38:12;;;;;;;15.60;8.50;;;13.80;99.90;;;;;;5094383;28;20195;-79
2021/06/30 04:40:39;;;;;;;11.10;8.40;;;13.80;99.90;;;;;;5093868;28;20266;-79
2021/06/30 04:43:06;;;;;;;13.00;9.03;;;13.60;99.90;;;;;;5094109;28;20577;-81
2021/06/30 04:45:33;;;;;;;13.67;8.73;;;13.60;99.90;;;;;;5094162;28;20273;-79
2021/06/30 04:48:00;;;;;;;13.57;9.47;;;13.70;99.90;;;;;;5094191;28;20222;-81
2021/06/30 04:50:28;;;;;;;18.07;9.07;;;13.90;99.90;;;;;;5094173;28;20293;-83
2021/06/30 04:52:55;;;;;;;21.77;9.57;;;14.00;99.90;;;;;;5093914;28;20286;-84
2021/06/30 04:55:22;;;;;;;17.73;9.73;;;14.20;99.90;;;;;;5094401;28;20241;-78
2021/06/30 04:57:49;;;;;;;24.57;11.00;;;14.40;99.90;;;;;;5094091;28;20237;-82
2021/06/30 05:00:16;;;;;;;19.33;10.43;;;14.60;99.90;;;;;;5094355;28;20214;-83
2021/06/30 05:02:43;;;;;;;22.83;11.30;;;14.60;99.90;;;;;;5095223;28;20240;-79
2021/06/30 05:05:11;;;;;;;21.77;10.83;;;14.70;99.90;;;;;;5094053;28;20544;-83
2021/06/30 05:07:39;;;;;;;54.70;15.63;;;14.70;99.90;;;;;;5093754;28;20198;-79
2021/06/30 05:10:07;;;;;;;50.67;17.90;;;14.90;99.90;;;;;;5093973;28;20281;-80
2021/06/30 05:12:34;;;;;;;63.60;19.57;;;15.10;99.90;;;;;;5093614;28;20223;-81
2021/06/30 05:15:01;;;;;;;55.37;19.00;;;15.20;99.90;;;;;;5093264;28;20205;-81
2021/06/30 05:17:28;;;;;;;56.87;18.83;;;15.10;99.90;;;;;;5092098;28;20249;-79
2021/06/30 05:19:55;;;;;;;58.13;19.53;;;15.10;99.90;;;;;;5091983;28;20231;-79
2021/06/30 05:22:22;;;;;;;61.47;20.07;;;15.10;99.90;;;;;;5091014;28;20282;-81
2021/06/30 05:24:50;;;;;;;57.00;18.57;;;14.90;99.90;;;;;;5100336;28;20194;-78
2021/06/30 05:27:17;;;;;;;53.43;18.17;;;15.00;99.90;;;;;;5106109;28;20302;-79
2021/06/30 05:29:44;;;;;;;53.33;18.13;;;14.90;99.90;;;;;;5092883;28;20238;-79
2021/06/30 05:32:11;;;;;;;59.53;17.30;;;14.70;99.90;;;;;;5093028;28;20672;-81
2021/06/30 05:34:38;;;;;;;50.47;17.30;;;14.60;99.90;;;;;;5092537;28;20752;-78
2021/06/30 05:37:05;;;;;;;47.53;17.47;;;14.60;99.90;;;;;;5092598;28;20562;-79
2021/06/30 05:39:32;;;;;;;40.47;16.40;;;14.50;99.90;;;;;;5092930;28;20202;-81
2021/06/30 05:42:00;;;;;;;39.63;16.37;;;14.50;99.90;;;;;;5092598;28;20253;-81
2021/06/30 05:44:27;;;;;;;43.23;16.17;;;14.40;99.90;;;;;;5092768;28;20673;-79
2021/06/30 05:46:54;;;;;;;33.80;15.07;;;14.40;99.90;;;;;;5092115;28;20244;-79
2021/06/30 05:49:21;;;;;;;37.13;15.10;;;14.40;99.90;;;;;;5092422;28;20214;-81
2021/06/30 05:51:48;;;;;;;35.93;14.97;;;14.30;99.90;;;;;;5088514;28;20286;-81
2021/06/30 05:54:14;;;;;;;34.07;14.10;;;14.30;99.90;;;;;;5091595;28;20297;-81
2021/06/30 05:56:41;;;;;;;33.87;14.80;;;14.40;99.90;;;;;;5092076;28;20293;-81
2021/06/30 05:59:10;;;;;;;35.03;15.60;;;14.50;99.90;;;;;;5093040;28;20198;-80
2021/06/30 06:01:37;;;;;;;32.43;14.33;;;14.60;99.90;;;;;;5092216;28;20563;-78
2021/06/30 06:04:04;;;;;;;29.23;14.83;;;14.60;99.90;;;;;;5091830;28;20195;-78
2021/06/30 06:06:31;;;;;;;29.57;14.13;;;14.60;99.90;;;;;;5091861;28;20561;-81
2021/06/30 06:08:58;;;;;;;38.23;14.83;;;14.70;99.90;;;;;;5092152;28;20687;-80
2021/06/30 06:11:25;;;;;;;30.43;14.30;;;14.70;99.90;;;;;;5092087;28;20571;-80
2021/06/30 06:13:53;;;;;;;37.37;15.70;;;14.70;99.90;;;;;;5091739;28;20244;-80
2021/06/30 06:16:22;;;;;;;27.33;12.33;;;14.70;99.90;;;;;;5092564;28;20198;-81
2021/06/30 06:18:49;;;;;;;28.80;13.27;;;14.80;99.90;;;;;;5092275;28;20206;-79
2021/06/30 06:21:17;;;;;;;40.33;15.47;;;14.70;99.90;;;;;;5091952;28;20266;-82
2021/06/30 06:23:44;;;;;;;27.27;13.60;;;14.70;99.90;;;;;;5092430;28;20286;-81
2021/06/30 06:26:12;;;;;;;27.67;14.47;;;14.70;99.90;;;;;;5092007;28;20234;-81
2021/06/30 06:28:39;;;;;;;29.57;13.20;;;14.80;99.90;;;;;;5092280;28;20206;-80
2021/06/30 06:31:10;;;;;;;30.03;14.40;;;14.80;99.90;;;;;;5091714;28;20230;-81
2021/06/30 06:33:38;;;;;;;25.50;13.03;;;14.70;99.90;;;;;;5095205;28;20186;-79
2021/06/30 06:36:05;;;;;;;32.63;13.33;;;14.50;99.90;;;;;;5096074;28;20233;-78
2021/06/30 06:38:33;;;;;;;23.77;11.73;;;14.30;99.90;;;;;;5096175;28;20209;-78
2021/06/30 06:41:00;;;;;;;21.13;11.33;;;14.20;99.90;;;;;;5095289;28;20302;-80
2021/06/30 06:43:27;;;;;;;26.13;11.00;;;14.10;99.90;;;;;;5095940;28;20297;-77
2021/06/30 06:45:54;;;;;;;26.87;11.10;;;14.10;99.90;;;;;;5112197;28;20272;-78
2021/06/30 06:48:21;;;;;;;24.93;11.87;;;14.10;99.90;;;;;;5105529;28;20277;-77
2021/06/30 06:50:49;;;;;;;21.37;12.00;;;14.20;99.90;;;;;;5096104;28;20202;-80
2021/06/30 06:53:16;;;;;;;24.50;11.13;;;14.30;99.90;;;;;;5095544;28;20219;-78
2021/06/30 06:55:43;;;;;;;21.17;10.70;;;14.40;99.90;;;;;;5096081;28;20252;-80
2021/06/30 06:58:09;;;;;;;17.27;9.47;;;14.40;99.90;;;;;;5107341;28;20194;-77
2021/06/30 07:00:36;;;;;;;15.63;8.90;;;14.40;99.90;;;;;;5115994;28;20222;-79
2021/06/30 07:03:03;;;;;;;14.83;7.40;;;14.20;99.90;;;;;;5083330;28;20693;-79
2021/06/30 07:05:30;;;;;;;12.57;7.50;;;14.00;99.90;;;;;;5095771;28;20226;-81
2021/06/30 07:07:58;;;;;;;11.90;7.77;;;14.00;99.90;;;;;;5095255;28;20636;-79
2021/06/30 07:10:25;;;;;;;14.13;8.00;;;13.90;99.90;;;;;;5094855;28;20198;-80
2021/06/30 07:12:52;;;;;;;13.13;7.77;;;13.90;99.90;;;;;;5100538;28;20281;-79
2021/06/30 07:15:19;;;;;;;14.63;8.23;;;13.90;99.90;;;;;;5104795;28;20304;-81
2021/06/30 07:17:46;;;;;;;14.00;8.07;;;13.90;99.90;;;;;;5094381;28;20299;-79
2021/06/30 07:20:13;;;;;;;13.70;7.87;;;13.90;99.90;;;;;;5095368;28;20332;-80
2021/06/30 07:22:40;;;;;;;14.57;7.90;;;13.90;99.90;;;;;;5077965;28;20310;-78
2021/06/30 07:25:09;;;;;;;13.70;7.30;;;14.00;99.90;;;;;;5086422;28;20188;-78
2021/06/30 07:27:36;;;;;;;18.13;8.27;;;14.00;99.90;;;;;;5074859;28;20242;-82
2021/06/30 07:30:03;;;;;;;19.60;8.47;;;14.00;99.90;;;;;;5087417;28;20652;-78
2021/06/30 07:32:30;;;;;;;15.60;7.90;;;14.10;99.90;;;;;;5095573;28;20209;-77
2021/06/30 07:34:57;;;;;;;12.13;7.93;;;14.20;99.90;;;;;;5098181;28;20284;-78
2021/06/30 07:37:24;;;;;;;14.27;7.40;;;14.20;99.90;;;;;;5100711;28;20195;-80
2021/06/30 07:39:51;;;;;;;16.67;7.97;;;14.30;99.90;;;;;;5097362;28;20199;-79
2021/06/30 07:42:19;;;;;;;13.63;7.60;;;14.30;99.90;;;;;;5100906;28;20246;-79
2021/06/30 07:44:49;;;;;;;12.40;7.27;;;14.40;99.90;;;;;;5099609;28;20259;-79
2021/06/30 07:47:16;;;;;;;10.40;7.63;;;14.40;99.90;;;;;;5097311;28;20209;-80
2021/06/30 07:49:43;;;;;;;11.43;7.03;;;14.50;99.90;;;;;;5095196;28;20226;-82
2021/06/30 07:52:10;;;;;;;14.80;7.13;;;14.60;99.90;;;;;;5092935;28;20294;-82
2021/06/30 07:54:37;;;;;;;11.83;6.57;;;14.50;99.90;;;;;;5093304;28;20667;-78
2021/06/30 07:57:04;;;;;;;10.90;6.87;;;14.60;99.90;;;;;;5094108;28;20294;-78
2021/06/30 07:59:33;;;;;;;8.93;5.93;;;14.60;99.90;;;;;;5094709;28;20286;-81
2021/06/30 08:02:00;;;;;;;11.97;6.50;;;14.70;99.90;;;;;;5094351;28;20317;-80
2021/06/30 08:04:27;;;;;;;10.93;6.23;;;14.80;99.90;;;;;;5089381;28;20234;-80
2021/06/30 08:06:53;;;;;;;9.37;6.47;;;14.70;99.90;;;;;;5084115;28;20219;-81
2021/06/30 08:09:20;;;;;;;8.80;6.13;;;14.80;99.90;;;;;;5093572;28;20195;-80
2021/06/30 08:11:47;;;;;;;12.23;6.90;;;14.90;99.90;;;;;;5088241;28;20234;-81
2021/06/30 08:14:14;;;;;;;10.23;6.70;;;15.00;99.90;;;;;;5087728;28;20198;-79
2021/06/30 08:16:42;;;;;;;10.97;6.97;;;15.10;99.90;;;;;;5093923;28;20285;-80
2021/06/30 08:19:09;;;;;;;12.97;7.03;;;15.20;99.90;;;;;;5092705;28;20213;-78
2021/06/30 08:21:36;;;;;;;10.20;6.47;;;15.40;99.90;;;;;;5078511;28;20311;-81
2021/06/30 08:24:03;;;;;;;10.73;7.07;;;15.50;99.90;;;;;;5085477;28;20223;-77
2021/06/30 08:26:30;;;;;;;10.53;6.70;;;15.40;99.90;;;;;;5086119;28;20263;-77
2021/06/30 08:28:58;;;;;;;10.07;6.33;;;15.50;99.90;;;;;;5085355;28;20225;-78
2021/06/30 08:31:24;;;;;;;12.63;7.73;;;15.50;99.90;;;;;;5094023;28;20209;-78
2021/06/30 08:33:55;;;;;;;11.80;7.17;;;15.50;99.90;;;;;;5093462;28;20285;-78
2021/06/30 08:36:23;;;;;;;12.13;7.53;;;15.50;99.90;;;;;;5093732;28;20226;-81
2021/06/30 08:38:50;;;;;;;9.73;7.17;;;15.50;99.90;;;;;;5093913;28;20224;-78
2021/06/30 08:41:18;;;;;;;14.73;7.33;;;15.60;99.90;;;;;;5077156;28;20576;-77
2021/06/30 08:43:45;;;;;;;8.60;6.40;;;15.50;99.90;;;;;;5087448;28;20278;-78
2021/06/30 08:46:15;;;;;;;15.17;7.33;;;15.50;99.90;;;;;;5092038;28;20199;-80
2021/06/30 08:48:43;;;;;;;10.60;7.63;;;15.50;99.90;;;;;;5093732;28;20215;-77
2021/06/30 08:51:13;;;;;;;10.33;7.30;;;15.60;99.90;;;;;;5092622;28;20612;-79
2021/06/30 08:53:42;;;;;;;14.63;8.00;;;15.80;99.90;;;;;;5082705;28;20187;-76
2021/06/30 08:56:09;;;;;;;16.73;8.97;;;15.90;99.90;;;;;;5093250;28;20195;-78
2021/06/30 08:58:38;;;;;;;11.30;8.40;;;16.00;99.90;;;;;;5092940;28;20619;-77
2021/06/30 09:01:05;;;;;;;14.30;8.23;;;16.00;99.90;;;;;;5092839;28;20692;-77
2021/06/30 09:03:32;;;;;;;13.00;8.30;;;15.90;99.90;;;;;;5092809;28;20223;-80
2021/06/30 09:06:12;;;;;;;12.93;8.67;;;15.60;99.90;;;;;;5088467;28;20207;-78
2021/06/30 09:09:01;;;;;;;13.80;8.77;;;15.70;99.90;;;;;;5092338;28;20609;-78
2021/06/30 09:11:31;;;;;;;14.87;8.87;;;15.70;99.90;;;;;;5080479;28;20197;-80
2021/06/30 09:14:21;;;;;;;16.73;8.87;;;15.70;99.90;;;;;;5089059;28;20203;-80
2021/06/30 09:17:03;;;;;;;14.80;9.47;;;15.70;99.90;;;;;;5086973;28;20278;-81
2021/06/30 09:20:06;;;;;;;18.10;10.77;;;15.70;99.90;;;;;;5085342;28;20182;-78
2021/06/30 09:22:42;;;;;;;16.10;10.57;;;15.60;99.90;;;;;;5084726;28;20229;-80
2021/06/30 09:25:26;;;;;;;18.70;10.50;;;15.50;99.90;;;;;;5092190;28;20206;-79
2021/06/30 09:27:52;;;;;;;21.50;11.07;;;15.50;99.90;;;;;;5085817;28;20673;-83
2021/06/30 09:30:20;;;;;;;17.13;11.30;;;15.60;99.90;;;;;;5083603;28;20227;-79
2021/06/30 09:32:59;;;;;;;21.37;11.03;;;15.90;99.90;;;;;;5077840;28;20361;-80
2021/06/30 09:35:31;;;;;;;21.50;11.30;;;16.00;99.90;;;;;;5073569;28;20192;-81
2021/06/30 09:37:59;;;;;;;19.83;11.40;;;15.90;99.90;;;;;;5091699;28;20277;-79
2021/06/30 09:40:45;;;;;;;26.67;13.07;;;16.20;99.90;;;;;;5092287;28;20301;-81
2021/06/30 09:43:25;;;;;;;22.83;12.87;;;16.60;99.90;;;;;;5090129;28;20314;-78
2021/06/30 09:45:53;;;;;;;21.33;12.63;;;16.80;99.90;;;;;;5093014;28;20214;-80
2021/06/30 09:48:31;;;;;;;22.87;12.70;;;16.80;99.90;;;;;;5092595;28;20243;-79
2021/06/30 09:50:58;;;;;;;19.97;12.47;;;16.70;99.90;;;;;;5092213;28;20202;-78
2021/06/30 09:53:37;;;;;;;18.90;10.27;;;17.00;99.90;;;;;;5089258;28;20188;-78
2021/06/30 09:56:32;;;;;;;18.40;9.93;;;17.00;99.90;;;;;;5081122;28;20637;-78
2021/06/30 09:59:21;;;;;;;14.80;9.43;;;17.10;99.90;;;;;;5076366;28;20373;-78
2021/06/30 10:01:57;;;;;;;12.90;8.67;;;17.30;99.90;;;;;;5084363;28;20226;-79
2021/06/30 10:04:26;;;;;;;17.73;9.67;;;16.90;99.90;;;;;;5090028;28;20224;-79
2021/06/30 10:06:58;;;;;;;13.43;9.30;;;17.10;99.90;;;;;;5091006;28;20227;-79
2021/06/30 10:09:25;;;;;;;14.30;9.07;;;17.20;99.90;;;;;;5091872;28;20247;-80
2021/06/30 10:12:05;;;;;;;13.53;9.70;;;17.40;99.90;;;;;;5092000;28;20218;-78
2021/06/30 10:14:33;;;;;;;14.57;10.00;;;17.30;99.90;;;;;;5090411;28;20214;-79
2021/06/30 10:17:00;;;;;;;13.10;9.83;;;17.40;99.90;;;;;;5092067;28;20249;-79
2021/06/30 10:19:30;;;;;;;13.63;9.30;;;17.40;99.90;;;;;;5092012;28;20222;-80
2021/06/30 10:21:58;;;;;;;16.03;9.20;;;17.30;99.90;;;;;;5089376;28;20250;-80
2021/06/30 10:24:25;;;;;;;12.37;9.10;;;17.20;99.90;;;;;;5092105;28;20206;-79
2021/06/30 10:26:53;;;;;;;14.03;10.43;;;17.10;99.90;;;;;;5092276;28;20229;-80
2021/06/30 10:29:25;;;;;;;11.07;8.53;;;17.20;99.90;;;;;;5091594;28;20215;-78
2021/06/30 10:31:52;;;;;;;14.63;9.33;;;17.10;99.90;;;;;;5092244;28;20212;-80
2021/06/30 10:34:21;;;;;;;11.93;9.20;;;17.10;99.90;;;;;;5091697;28;20635;-78
2021/06/30 10:36:53;;;;;;;11.73;8.93;;;17.10;99.90;;;;;;5091692;28;20281;-79
2021/06/30 10:39:40;;;;;;;14.33;9.23;;;16.90;99.90;;;;;;5091000;28;20234;-79
2021/06/30 10:42:21;;;;;;;16.57;9.87;;;16.70;99.90;;;;;;5090788;28;20218;-77
2021/06/30 10:44:52;;;;;;;15.43;10.23;;;16.80;99.90;;;;;;5090843;28;20209;-77
2021/06/30 10:47:30;;;;;;;19.37;10.83;;;16.90;99.90;;;;;;5090741;28;20541;-80
2021/06/30 10:50:22;;;;;;;18.80;9.50;;;16.90;99.90;;;;;;5088820;28;20600;-78
2021/06/30 10:52:51;;;;;;;18.40;9.90;;;16.70;99.90;;;;;;5090219;28;20221;-78
2021/06/30 10:55:48;;;;;;;14.30;9.13;;;16.50;99.90;;;;;;5090722;28;20672;-77
2021/06/30 10:58:20;;;;;;;16.70;9.60;;;16.10;99.90;;;;;;5090512;28;20199;-78
2021/06/30 11:00:51;;;;;;;18.73;9.53;;;16.00;99.90;;;;;;5091503;28;20191;-78
2021/06/30 11:03:23;;;;;;;20.77;9.10;;;16.00;99.90;;;;;;5090722;28;20319;-80
2021/06/30 11:05:51;;;;;;;14.73;8.60;;;15.90;99.90;;;;;;5091699;28;20191;-77
2021/06/30 11:08:43;;;;;;;14.23;8.17;;;15.90;99.90;;;;;;5088952;28;21211;-79
2021/06/30 11:11:11;;;;;;;14.93;8.40;;;15.80;99.90;;;;;;5090398;28;20195;-78
2021/06/30 11:14:03;;;;;;;18.27;8.30;;;16.00;99.90;;;;;;5088960;28;20289;-78
2021/06/30 11:16:53;;;;;;;13.47;7.40;;;16.00;99.90;;;;;;5076864;28;20623;-78
2021/06/30 11:19:42;;;;;;;9.47;6.97;;;16.10;99.90;;;;;;5092473;28;20217;-76
2021/06/30 11:22:26;;;;;;;8.83;6.80;;;16.10;99.90;;;;;;5092914;28;20226;-79
2021/06/30 11:24:53;;;;;;;11.00;6.80;;;16.10;99.90;;;;;;5093189;28;20270;-80
2021/06/30 11:27:44;;;;;;;10.40;7.30;;;16.10;99.90;;;;;;5095006;28;20214;-79
2021/06/30 11:30:13;;;;;;;10.20;7.27;;;16.40;99.90;;;;;;5093147;28;20195;-81
2021/06/30 11:32:51;;;;;;;12.03;6.60;;;16.60;99.90;;;;;;5094958;28;20218;-79
2021/06/30 11:35:32;;;;;;;14.90;7.17;;;16.50;99.90;;;;;;5093739;28;20294;-80
2021/06/30 11:38:07;;;;;;;10.77;7.00;;;16.50;99.90;;;;;;5093775;28;20191;-78
2021/06/30 11:40:36;;;;;;;10.80;6.67;;;16.40;99.90;;;;;;5092981;28;20201;-80
2021/06/30 11:43:12;;;;;;;9.20;6.40;;;16.20;99.90;;;;;;5094599;28;20234;-83
2021/06/30 11:45:39;;;;;;;7.80;6.50;;;16.20;99.90;;;;;;5094727;28;20186;-82
2021/06/30 11:48:10;;;;;;;9.43;6.33;;;16.50;99.90;;;;;;5093365;28;20205;-80
2021/06/30 11:50:49;;;;;;;8.90;5.40;;;16.90;99.90;;;;;;5084828;28;20194;-80
2021/06/30 11:53:16;;;;;;;7.53;5.67;;;17.50;99.90;;;;;;5094155;28;20195;-79
2021/06/30 11:55:47;;;;;;;8.00;6.40;;;17.60;99.90;;;;;;5094126;28;20222;-77
2021/06/30 11:58:14;;;;;;;8.53;5.87;;;17.80;99.90;;;;;;5104943;28;20233;-82
2021/06/30 12:00:43;;;;;;;9.77;6.47;;;18.10;99.90;;;;;;5101026;28;20258;-78
2021/06/30 12:03:12;;;;;;;8.40;5.60;;;18.30;99.90;;;;;;5096623;28;20242;-78
2021/06/30 12:05:40;;;;;;;10.27;6.17;;;18.40;99.90;;;;;;5094175;28;20289;-80
2021/06/30 12:08:09;;;;;;;10.20;6.40;;;18.60;99.90;;;;;;5087076;28;20200;-78
2021/06/30 12:10:40;;;;;;;8.47;6.20;;;18.90;99.90;;;;;;5096215;28;20652;-80
2021/06/30 12:13:12;;;;;;;7.30;5.97;;;19.30;99.90;;;;;;5094866;28;20203;-78
2021/06/30 12:15:43;;;;;;;8.57;6.40;;;19.40;99.90;;;;;;5093738;28;20195;-79
2021/06/30 12:18:12;;;;;;;8.53;7.00;;;19.50;99.90;;;;;;5093934;28;20202;-79
2021/06/30 12:20:39;;;;;;;10.90;6.20;;;19.70;99.90;;;;;;5092741;28;20219;-81
2021/06/30 12:23:06;;;;;;;11.53;6.73;;;19.70;99.90;;;;;;5093155;28;20225;-79
2021/06/30 12:25:35;;;;;;;12.30;7.53;;;19.80;99.90;;;;;;5091494;28;20930;-78
2021/06/30 12:28:05;;;;;;;11.40;7.63;;;19.60;99.90;;;;;;5092487;28;20198;-80
2021/06/30 12:30:35;;;;;;;13.53;7.80;;;19.50;99.90;;;;;;5084684;28;20215;-78
2021/06/30 12:33:08;;;;;;;13.17;8.10;;;19.20;99.90;;;;;;5087895;28;20199;-79
2021/06/30 12:35:39;;;;;;;12.57;7.07;;;18.90;99.90;;;;;;5090373;28;20656;-79
2021/06/30 12:38:10;;;;;;;10.53;7.10;;;19.00;99.90;;;;;;5088972;28;20206;-81
2021/06/30 12:40:39;;;;;;;12.50;7.60;;;19.00;99.90;;;;;;5094408;28;20194;-80
2021/06/30 12:43:16;;;;;;;11.93;7.70;;;19.30;99.90;;;;;;5080988;28;20769;-83
2021/06/30 12:45:44;;;;;;;14.03;7.33;;;19.30;99.90;;;;;;5093104;28;20195;-79